ADDS METAR Data INFO
IDs: Format: Raw Decoded Include TAF

Data at: 2223 UTC 23 May 2018

KECP 232153Z 16010KT 10SM BKN026 BKN055 28/22 A3004 RMK AO2 LTG DSNT NW-NE SLP181 T02830222